sensor_id;sensor_type;location;lat;lon;timestamp;P1;durP1;ratioP1;P2;durP2;ratioP2
24216;SDS011;12356;49.386;8.688;2023-05-10T00:02:25;2.97;;;1.30;;
24216;SDS011;12356;49.386;8.688;2023-05-10T00:04:56;2.50;;;1.30;;
24216;SDS011;12356;49.386;8.688;2023-05-10T00:07:27;1.52;;;1.27;;
24216;SDS011;12356;49.386;8.688;2023-05-10T00:09:57;1.85;;;1.27;;
24216;SDS011;12356;49.386;8.688;2023-05-10T00:12:28;2.33;;;1.20;;
24216;SDS011;12356;49.386;8.688;2023-05-10T00:14:58;1.95;;;1.10;;
24216;SDS011;12356;49.386;8.688;2023-05-10T00:17:30;2.58;;;1.20;;
24216;SDS011;12356;49.386;8.688;2023-05-10T00:20:01;1.55;;;0.98;;
24216;SDS011;12356;49.386;8.688;2023-05-10T00:22:32;4.10;;;1.10;;
24216;SDS011;12356;49.386;8.688;2023-05-10T00:25:02;1.35;;;1.23;;
24216;SDS011;12356;49.386;8.688;2023-05-10T00:27:33;1.58;;;1.20;;
24216;SDS011;12356;49.386;8.688;2023-05-10T00:30:04;2.53;;;1.00;;
24216;SDS011;12356;49.386;8.688;2023-05-10T00:32:36;1.20;;;0.95;;
24216;SDS011;12356;49.386;8.688;2023-05-10T00:35:06;1.10;;;0.90;;
24216;SDS011;12356;49.386;8.688;2023-05-10T00:37:37;1.98;;;0.60;;
24216;SDS011;12356;49.386;8.688;2023-05-10T00:40:08;5.55;;;1.20;;
24216;SDS011;12356;49.386;8.688;2023-05-10T00:42:39;0.88;;;0.70;;
24216;SDS011;12356;49.386;8.688;2023-05-10T00:45:10;1.08;;;0.88;;
24216;SDS011;12356;49.386;8.688;2023-05-10T00:47:41;1.13;;;0.90;;
24216;SDS011;12356;49.386;8.688;2023-05-10T00:50:12;4.03;;;0.80;;
24216;SDS011;12356;49.386;8.688;2023-05-10T00:52:43;1.00;;;0.90;;
24216;SDS011;12356;49.386;8.688;2023-05-10T00:55:14;1.17;;;0.90;;
24216;SDS011;12356;49.386;8.688;2023-05-10T00:57:44;1.08;;;0.90;;
24216;SDS011;12356;49.386;8.688;2023-05-10T01:00:15;1.40;;;0.98;;
24216;SDS011;12356;49.386;8.688;2023-05-10T01:02:48;2.45;;;1.00;;
24216;SDS011;12356;49.386;8.688;2023-05-10T01:05:19;1.95;;;0.75;;
24216;SDS011;12356;49.386;8.688;2023-05-10T01:07:50;1.35;;;0.80;;
24216;SDS011;12356;49.386;8.688;2023-05-10T01:10:21;1.63;;;0.95;;
24216;SDS011;12356;49.386;8.688;2023-05-10T01:12:52;4.13;;;0.90;;
24216;SDS011;12356;49.386;8.688;2023-05-10T01:15:22;1.10;;;0.90;;
24216;SDS011;12356;49.386;8.688;2023-05-10T01:17:53;1.17;;;0.80;;
24216;SDS011;12356;49.386;8.688;2023-05-10T01:20:24;1.40;;;0.90;;
24216;SDS011;12356;49.386;8.688;2023-05-10T01:31:12;2.50;;;0.80;;
24216;SDS011;12356;49.386;8.688;2023-05-10T01:34:12;1.80;;;0.90;;
24216;SDS011;12356;49.386;8.688;2023-05-10T01:36:51;3.28;;;1.00;;
24216;SDS011;12356;49.386;8.688;2023-05-10T01:39:30;1.50;;;1.40;;
24216;SDS011;12356;49.386;8.688;2023-05-10T01:42:08;3.22;;;1.40;;
24216;SDS011;12356;49.386;8.688;2023-05-10T01:47:44;2.20;;;1.40;;
24216;SDS011;12356;49.386;8.688;2023-05-10T01:50:32;1.55;;;1.45;;
24216;SDS011;12356;49.386;8.688;2023-05-10T01:53:06;9.27;;;1.70;;
24216;SDS011;12356;49.386;8.688;2023-05-10T01:55:46;4.35;;;1.88;;
24216;SDS011;12356;49.386;8.688;2023-05-10T01:58:28;2.70;;;1.60;;
24216;SDS011;12356;49.386;8.688;2023-05-10T02:01:01;5.05;;;1.70;;
24216;SDS011;12356;49.386;8.688;2023-05-10T02:03:34;3.00;;;1.70;;
24216;SDS011;12356;49.386;8.688;2023-05-10T02:06:06;2.65;;;1.50;;
24216;SDS011;12356;49.386;8.688;2023-05-10T02:08:39;3.92;;;1.80;;
24216;SDS011;12356;49.386;8.688;2023-05-10T02:11:11;2.07;;;1.70;;
24216;SDS011;12356;49.386;8.688;2023-05-10T02:13:43;2.55;;;1.63;;
24216;SDS011;12356;49.386;8.688;2023-05-10T02:16:17;2.50;;;1.70;;
24216;SDS011;12356;49.386;8.688;2023-05-10T02:18:50;4.38;;;1.67;;
24216;SDS011;12356;49.386;8.688;2023-05-10T02:21:24;2.30;;;1.52;;
24216;SDS011;12356;49.386;8.688;2023-05-10T02:23:56;2.22;;;1.70;;
24216;SDS011;12356;49.386;8.688;2023-05-10T02:26:27;2.38;;;1.60;;
24216;SDS011;12356;49.386;8.688;2023-05-10T02:28:59;4.85;;;1.58;;
24216;SDS011;12356;49.386;8.688;2023-05-10T02:31:33;2.35;;;1.60;;
24216;SDS011;12356;49.386;8.688;2023-05-10T02:34:05;3.17;;;1.70;;
24216;SDS011;12356;49.386;8.688;2023-05-10T02:36:38;2.78;;;1.40;;
24216;SDS011;12356;49.386;8.688;2023-05-10T02:39:10;2.20;;;1.30;;
24216;SDS011;12356;49.386;8.688;2023-05-10T02:41:43;4.10;;;1.38;;
24216;SDS011;12356;49.386;8.688;2023-05-10T02:44:17;4.40;;;1.30;;
24216;SDS011;12356;49.386;8.688;2023-05-10T02:46:49;3.35;;;1.50;;
24216;SDS011;12356;49.386;8.688;2023-05-10T02:49:20;4.93;;;1.80;;
24216;SDS011;12356;49.386;8.688;2023-05-10T02:51:51;3.05;;;1.45;;
24216;SDS011;12356;49.386;8.688;2023-05-10T02:54:29;4.50;;;1.60;;
24216;SDS011;12356;49.386;8.688;2023-05-10T02:57:03;2.85;;;1.42;;
24216;SDS011;12356;49.386;8.688;2023-05-10T02:59:35;2.03;;;1.40;;
24216;SDS011;12356;49.386;8.688;2023-05-10T03:02:06;2.83;;;1.50;;
24216;SDS011;12356;49.386;8.688;2023-05-10T03:04:37;1.67;;;1.42;;
24216;SDS011;12356;49.386;8.688;2023-05-10T03:07:08;4.32;;;1.60;;
24216;SDS011;12356;49.386;8.688;2023-05-10T03:09:38;4.65;;;1.60;;
24216;SDS011;12356;49.386;8.688;2023-05-10T03:12:11;3.05;;;1.50;;
24216;SDS011;12356;49.386;8.688;2023-05-10T03:15:11;2.03;;;1.80;;
24216;SDS011;12356;49.386;8.688;2023-05-10T03:20:42;4.85;;;2.00;;
24216;SDS011;12356;49.386;8.688;2023-05-10T03:25:47;1.90;;;1.80;;
24216;SDS011;12356;49.386;8.688;2023-05-10T03:28:19;6.05;;;2.10;;
24216;SDS011;12356;49.386;8.688;2023-05-10T03:30:51;3.63;;;2.17;;
24216;SDS011;12356;49.386;8.688;2023-05-10T03:33:23;4.72;;;2.00;;
24216;SDS011;12356;49.386;8.688;2023-05-10T03:35:53;2.88;;;2.30;;
24216;SDS011;12356;49.386;8.688;2023-05-10T03:38:24;5.15;;;2.30;;
24216;SDS011;12356;49.386;8.688;2023-05-10T03:40:54;3.45;;;2.40;;
24216;SDS011;12356;49.386;8.688;2023-05-10T03:43:25;2.90;;;2.40;;
24216;SDS011;12356;49.386;8.688;2023-05-10T03:45:56;3.33;;;2.35;;
24216;SDS011;12356;49.386;8.688;2023-05-10T03:48:26;4.00;;;2.30;;
24216;SDS011;12356;49.386;8.688;2023-05-10T03:50:57;2.55;;;2.35;;
24216;SDS011;12356;49.386;8.688;2023-05-10T03:53:27;3.05;;;2.38;;
24216;SDS011;12356;49.386;8.688;2023-05-10T03:55:58;2.90;;;2.58;;
24216;SDS011;12356;49.386;8.688;2023-05-10T03:58:28;5.30;;;2.47;;
24216;SDS011;12356;49.386;8.688;2023-05-10T04:00:59;3.47;;;2.72;;
24216;SDS011;12356;49.386;8.688;2023-05-10T04:03:29;4.60;;;2.50;;
24216;SDS011;12356;49.386;8.688;2023-05-10T04:06:00;3.53;;;2.67;;
24216;SDS011;12356;49.386;8.688;2023-05-10T04:08:31;3.10;;;2.60;;
24216;SDS011;12356;49.386;8.688;2023-05-10T04:11:09;8.90;;;2.70;;
24216;SDS011;12356;49.386;8.688;2023-05-10T04:13:40;4.35;;;2.65;;
24216;SDS011;12356;49.386;8.688;2023-05-10T04:16:11;3.00;;;2.70;;
24216;SDS011;12356;49.386;8.688;2023-05-10T04:18:41;4.50;;;2.58;;
24216;SDS011;12356;49.386;8.688;2023-05-10T04:21:12;5.07;;;2.97;;
24216;SDS011;12356;49.386;8.688;2023-05-10T04:23:43;5.07;;;2.60;;
24216;SDS011;12356;49.386;8.688;2023-05-10T04:26:14;8.05;;;3.20;;
24216;SDS011;12356;49.386;8.688;2023-05-10T04:28:44;5.22;;;3.40;;
24216;SDS011;12356;49.386;8.688;2023-05-10T04:31:15;6.53;;;3.40;;
24216;SDS011;12356;49.386;8.688;2023-05-10T04:33:46;5.07;;;3.60;;
24216;SDS011;12356;49.386;8.688;2023-05-10T04:36:16;4.63;;;3.45;;
24216;SDS011;12356;49.386;8.688;2023-05-10T04:38:47;5.03;;;3.42;;
24216;SDS011;12356;49.386;8.688;2023-05-10T04:41:18;8.45;;;3.78;;
24216;SDS011;12356;49.386;8.688;2023-05-10T04:43:48;5.40;;;3.45;;
24216;SDS011;12356;49.386;8.688;2023-05-10T04:46:19;3.80;;;3.45;;
24216;SDS011;12356;49.386;8.688;2023-05-10T04:48:49;13.05;;;3.55;;
24216;SDS011;12356;49.386;8.688;2023-05-10T04:51:20;5.43;;;3.38;;
24216;SDS011;12356;49.386;8.688;2023-05-10T04:53:51;6.72;;;3.40;;
24216;SDS011;12356;49.386;8.688;2023-05-10T04:56:21;4.00;;;3.65;;
24216;SDS011;12356;49.386;8.688;2023-05-10T04:58:52;5.78;;;3.20;;
24216;SDS011;12356;49.386;8.688;2023-05-10T05:01:23;3.72;;;3.42;;
24216;SDS011;12356;49.386;8.688;2023-05-10T05:03:53;4.55;;;3.35;;
24216;SDS011;12356;49.386;8.688;2023-05-10T05:06:24;4.03;;;3.50;;
24216;SDS011;12356;49.386;8.688;2023-05-10T05:08:55;4.40;;;3.38;;
24216;SDS011;12356;49.386;8.688;2023-05-10T05:11:26;3.95;;;3.50;;
24216;SDS011;12356;49.386;8.688;2023-05-10T05:13:56;7.63;;;3.53;;
24216;SDS011;12356;49.386;8.688;2023-05-10T05:16:30;6.20;;;3.90;;
24216;SDS011;12356;49.386;8.688;2023-05-10T05:19:00;5.07;;;3.90;;
24216;SDS011;12356;49.386;8.688;2023-05-10T05:21:31;7.55;;;3.72;;
24216;SDS011;12356;49.386;8.688;2023-05-10T05:24:02;5.40;;;3.75;;
24216;SDS011;12356;49.386;8.688;2023-05-10T05:26:33;7.88;;;3.83;;
24216;SDS011;12356;49.386;8.688;2023-05-10T05:29:04;4.35;;;3.95;;
24216;SDS011;12356;49.386;8.688;2023-05-10T05:31:34;7.55;;;4.00;;
24216;SDS011;12356;49.386;8.688;2023-05-10T05:34:05;5.47;;;4.40;;
24216;SDS011;12356;49.386;8.688;2023-05-10T05:36:38;11.68;;;4.15;;
24216;SDS011;12356;49.386;8.688;2023-05-10T05:39:09;6.68;;;4.20;;
24216;SDS011;12356;49.386;8.688;2023-05-10T05:41:39;5.75;;;4.10;;
24216;SDS011;12356;49.386;8.688;2023-05-10T05:44:10;5.30;;;4.00;;
24216;SDS011;12356;49.386;8.688;2023-05-10T05:46:41;4.80;;;3.88;;
24216;SDS011;12356;49.386;8.688;2023-05-10T05:49:11;5.53;;;4.20;;
24216;SDS011;12356;49.386;8.688;2023-05-10T05:51:42;6.88;;;4.13;;
24216;SDS011;12356;49.386;8.688;2023-05-10T05:54:13;6.35;;;4.03;;
24216;SDS011;12356;49.386;8.688;2023-05-10T05:56:43;6.55;;;4.05;;
24216;SDS011;12356;49.386;8.688;2023-05-10T05:59:14;7.57;;;3.95;;
24216;SDS011;12356;49.386;8.688;2023-05-10T06:01:44;6.15;;;3.80;;
24216;SDS011;12356;49.386;8.688;2023-05-10T06:04:15;6.88;;;4.13;;
24216;SDS011;12356;49.386;8.688;2023-05-10T06:06:46;8.80;;;4.50;;
24216;SDS011;12356;49.386;8.688;2023-05-10T06:09:16;7.65;;;4.60;;
24216;SDS011;12356;49.386;8.688;2023-05-10T06:11:47;5.55;;;4.03;;
24216;SDS011;12356;49.386;8.688;2023-05-10T06:14:19;7.13;;;4.50;;
24216;SDS011;12356;49.386;8.688;2023-05-10T06:16:50;5.75;;;4.03;;
24216;SDS011;12356;49.386;8.688;2023-05-10T06:19:21;7.35;;;4.70;;
24216;SDS011;12356;49.386;8.688;2023-05-10T06:21:51;10.18;;;4.72;;
24216;SDS011;12356;49.386;8.688;2023-05-10T06:24:22;6.97;;;4.55;;
24216;SDS011;12356;49.386;8.688;2023-05-10T06:26:53;5.82;;;4.45;;
24216;SDS011;12356;49.386;8.688;2023-05-10T06:29:23;8.25;;;4.70;;
24216;SDS011;12356;49.386;8.688;2023-05-10T06:31:54;8.80;;;4.78;;
24216;SDS011;12356;49.386;8.688;2023-05-10T06:34:24;5.65;;;4.65;;
24216;SDS011;12356;49.386;8.688;2023-05-10T06:36:55;8.32;;;5.18;;
24216;SDS011;12356;49.386;8.688;2023-05-10T06:39:25;6.70;;;5.32;;
24216;SDS011;12356;49.386;8.688;2023-05-10T06:41:56;7.75;;;5.10;;
24216;SDS011;12356;49.386;8.688;2023-05-10T06:44:26;5.28;;;4.78;;
24216;SDS011;12356;49.386;8.688;2023-05-10T06:46:57;11.45;;;5.85;;
24216;SDS011;12356;49.386;8.688;2023-05-10T06:49:27;7.43;;;4.93;;
24216;SDS011;12356;49.386;8.688;2023-05-10T06:51:58;6.97;;;5.03;;
24216;SDS011;12356;49.386;8.688;2023-05-10T06:54:28;5.65;;;4.70;;
24216;SDS011;12356;49.386;8.688;2023-05-10T06:56:59;5.18;;;4.55;;
24216;SDS011;12356;49.386;8.688;2023-05-10T06:59:29;6.97;;;4.53;;
24216;SDS011;12356;49.386;8.688;2023-05-10T07:02:00;5.47;;;4.85;;
24216;SDS011;12356;49.386;8.688;2023-05-10T07:04:30;5.07;;;4.45;;
24216;SDS011;12356;49.386;8.688;2023-05-10T07:07:01;6.07;;;4.60;;
24216;SDS011;12356;49.386;8.688;2023-05-10T07:09:32;5.00;;;4.18;;
24216;SDS011;12356;49.386;8.688;2023-05-10T07:12:03;6.00;;;4.32;;
24216;SDS011;12356;49.386;8.688;2023-05-10T07:14:34;7.85;;;4.30;;
24216;SDS011;12356;49.386;8.688;2023-05-10T07:17:04;6.72;;;4.28;;
24216;SDS011;12356;49.386;8.688;2023-05-10T07:19:35;4.68;;;3.97;;
24216;SDS011;12356;49.386;8.688;2023-05-10T07:22:05;5.65;;;4.65;;
24216;SDS011;12356;49.386;8.688;2023-05-10T07:24:36;4.78;;;4.32;;
24216;SDS011;12356;49.386;8.688;2023-05-10T07:27:07;5.38;;;4.30;;
24216;SDS011;12356;49.386;8.688;2023-05-10T07:29:37;5.95;;;5.03;;
24216;SDS011;12356;49.386;8.688;2023-05-10T07:32:08;5.18;;;4.68;;
24216;SDS011;12356;49.386;8.688;2023-05-10T07:34:39;6.03;;;4.47;;
24216;SDS011;12356;49.386;8.688;2023-05-10T07:37:09;6.00;;;4.90;;
24216;SDS011;12356;49.386;8.688;2023-05-10T07:39:40;6.32;;;4.97;;
24216;SDS011;12356;49.386;8.688;2023-05-10T07:42:11;9.70;;;5.20;;
24216;SDS011;12356;49.386;8.688;2023-05-10T07:44:41;7.97;;;4.45;;
24216;SDS011;12356;49.386;8.688;2023-05-10T07:47:12;5.70;;;4.00;;
24216;SDS011;12356;49.386;8.688;2023-05-10T07:49:42;5.82;;;4.00;;
24216;SDS011;12356;49.386;8.688;2023-05-10T07:52:13;6.18;;;4.07;;
24216;SDS011;12356;49.386;8.688;2023-05-10T07:54:44;4.53;;;3.63;;
24216;SDS011;12356;49.386;8.688;2023-05-10T07:57:15;6.10;;;3.90;;
24216;SDS011;12356;49.386;8.688;2023-05-10T07:59:47;4.78;;;4.00;;
24216;SDS011;12356;49.386;8.688;2023-05-10T08:02:18;4.75;;;3.42;;
24216;SDS011;12356;49.386;8.688;2023-05-10T08:04:48;4.43;;;3.40;;
24216;SDS011;12356;49.386;8.688;2023-05-10T08:07:19;4.15;;;3.28;;
24216;SDS011;12356;49.386;8.688;2023-05-10T08:09:49;6.78;;;3.10;;
24216;SDS011;12356;49.386;8.688;2023-05-10T08:12:20;3.22;;;2.90;;
24216;SDS011;12356;49.386;8.688;2023-05-10T08:14:50;4.68;;;3.10;;
24216;SDS011;12356;49.386;8.688;2023-05-10T08:17:21;3.95;;;3.10;;
24216;SDS011;12356;49.386;8.688;2023-05-10T08:19:51;3.75;;;2.88;;
24216;SDS011;12356;49.386;8.688;2023-05-10T08:22:22;4.38;;;3.08;;
24216;SDS011;12356;49.386;8.688;2023-05-10T08:24:52;3.55;;;2.80;;
24216;SDS011;12356;49.386;8.688;2023-05-10T08:27:23;3.35;;;2.83;;
24216;SDS011;12356;49.386;8.688;2023-05-10T08:29:53;3.63;;;2.65;;
24216;SDS011;12356;49.386;8.688;2023-05-10T08:32:24;4.05;;;2.40;;
24216;SDS011;12356;49.386;8.688;2023-05-10T08:34:55;3.42;;;2.80;;
24216;SDS011;12356;49.386;8.688;2023-05-10T08:37:26;5.78;;;2.78;;
24216;SDS011;12356;49.386;8.688;2023-05-10T08:40:00;2.92;;;2.53;;
24216;SDS011;12356;49.386;8.688;2023-05-10T08:42:30;4.55;;;2.20;;
24216;SDS011;12356;49.386;8.688;2023-05-10T08:45:06;3.13;;;2.20;;
24216;SDS011;12356;49.386;8.688;2023-05-10T08:47:38;2.85;;;1.90;;
24216;SDS011;12356;49.386;8.688;2023-05-10T08:50:09;4.75;;;1.85;;
24216;SDS011;12356;49.386;8.688;2023-05-10T08:52:40;3.22;;;2.17;;
24216;SDS011;12356;49.386;8.688;2023-05-10T08:55:11;3.50;;;2.40;;
24216;SDS011;12356;49.386;8.688;2023-05-10T08:57:42;5.13;;;2.28;;
24216;SDS011;12356;49.386;8.688;2023-05-10T09:00:13;4.35;;;2.38;;
24216;SDS011;12356;49.386;8.688;2023-05-10T09:02:44;2.75;;;2.00;;
24216;SDS011;12356;49.386;8.688;2023-05-10T09:05:15;4.30;;;2.20;;
24216;SDS011;12356;49.386;8.688;2023-05-10T09:07:47;2.60;;;2.40;;
24216;SDS011;12356;49.386;8.688;2023-05-10T09:10:18;5.38;;;1.80;;
24216;SDS011;12356;49.386;8.688;2023-05-10T09:12:50;3.40;;;1.80;;
24216;SDS011;12356;49.386;8.688;2023-05-10T09:15:21;3.55;;;1.80;;
24216;SDS011;12356;49.386;8.688;2023-05-10T09:17:52;2.58;;;1.88;;
24216;SDS011;12356;49.386;8.688;2023-05-10T09:20:22;1.90;;;1.58;;
24216;SDS011;12356;49.386;8.688;2023-05-10T09:22:53;2.45;;;1.50;;
24216;SDS011;12356;49.386;8.688;2023-05-10T09:25:24;2.33;;;1.50;;
24216;SDS011;12356;49.386;8.688;2023-05-10T09:27:55;2.35;;;1.58;;
24216;SDS011;12356;49.386;8.688;2023-05-10T09:30:29;2.20;;;1.70;;
24216;SDS011;12356;49.386;8.688;2023-05-10T09:33:00;1.65;;;1.55;;
24216;SDS011;12356;49.386;8.688;2023-05-10T09:35:31;1.83;;;1.40;;
24216;SDS011;12356;49.386;8.688;2023-05-10T09:38:03;2.60;;;1.47;;
24216;SDS011;12356;49.386;8.688;2023-05-10T09:40:34;3.03;;;1.70;;
24216;SDS011;12356;49.386;8.688;2023-05-10T09:43:08;3.80;;;1.70;;
24216;SDS011;12356;49.386;8.688;2023-05-10T09:45:40;5.10;;;2.10;;
24216;SDS011;12356;49.386;8.688;2023-05-10T09:48:11;3.33;;;1.70;;
24216;SDS011;12356;49.386;8.688;2023-05-10T09:50:41;1.60;;;1.20;;
24216;SDS011;12356;49.386;8.688;2023-05-10T09:53:14;3.33;;;1.58;;
24216;SDS011;12356;49.386;8.688;2023-05-10T09:55:46;1.95;;;1.20;;
24216;SDS011;12356;49.386;8.688;2023-05-10T09:58:16;2.72;;;1.48;;
24216;SDS011;12356;49.386;8.688;2023-05-10T10:00:47;2.85;;;1.50;;
24216;SDS011;12356;49.386;8.688;2023-05-10T10:03:21;4.03;;;1.50;;
24216;SDS011;12356;49.386;8.688;2023-05-10T10:05:52;4.30;;;1.38;;
24216;SDS011;12356;49.386;8.688;2023-05-10T10:08:25;2.35;;;1.40;;
24216;SDS011;12356;49.386;8.688;2023-05-10T10:10:56;2.15;;;1.30;;
24216;SDS011;12356;49.386;8.688;2023-05-10T10:13:27;1.70;;;1.30;;
24216;SDS011;12356;49.386;8.688;2023-05-10T10:15:59;1.87;;;1.30;;
24216;SDS011;12356;49.386;8.688;2023-05-10T10:18:30;1.50;;;1.30;;
24216;SDS011;12356;49.386;8.688;2023-05-10T10:21:01;2.80;;;1.40;;
24216;SDS011;12356;49.386;8.688;2023-05-10T10:23:32;2.05;;;1.10;;
24216;SDS011;12356;49.386;8.688;2023-05-10T10:26:03;1.35;;;1.10;;
24216;SDS011;12356;49.386;8.688;2023-05-10T10:28:47;1.77;;;1.10;;
24216;SDS011;12356;49.386;8.688;2023-05-10T10:31:47;2.67;;;1.10;;
24216;SDS011;12356;49.386;8.688;2023-05-10T10:34:27;4.80;;;1.10;;
24216;SDS011;12356;49.386;8.688;2023-05-10T10:37:03;1.77;;;1.20;;
24216;SDS011;12356;49.386;8.688;2023-05-10T10:39:35;1.63;;;1.05;;
24216;SDS011;12356;49.386;8.688;2023-05-10T10:42:06;3.42;;;1.75;;
24216;SDS011;12356;49.386;8.688;2023-05-10T10:44:37;2.63;;;2.20;;
24216;SDS011;12356;49.386;8.688;2023-05-10T10:49:42;0.80;;;0.80;;
24216;SDS011;12356;49.386;8.688;2023-05-10T10:55:00;3.33;;;1.10;;
24216;SDS011;12356;49.386;8.688;2023-05-10T11:03:04;0.85;;;0.70;;
24216;SDS011;12356;49.386;8.688;2023-05-10T11:05:49;4.82;;;0.90;;
24216;SDS011;12356;49.386;8.688;2023-05-10T11:08:31;2.63;;;0.80;;
24216;SDS011;12356;49.386;8.688;2023-05-10T11:11:04;3.10;;;1.15;;
24216;SDS011;12356;49.386;8.688;2023-05-10T11:13:40;1.05;;;0.88;;
24216;SDS011;12356;49.386;8.688;2023-05-10T11:16:19;1.38;;;1.10;;
24216;SDS011;12356;49.386;8.688;2023-05-10T11:19:04;1.15;;;0.90;;
24216;SDS011;12356;49.386;8.688;2023-05-10T11:21:44;1.17;;;1.00;;
24216;SDS011;12356;49.386;8.688;2023-05-10T11:24:18;3.15;;;1.00;;
24216;SDS011;12356;49.386;8.688;2023-05-10T11:26:50;3.05;;;0.98;;
24216;SDS011;12356;49.386;8.688;2023-05-10T11:29:22;1.00;;;0.90;;
24216;SDS011;12356;49.386;8.688;2023-05-10T11:31:52;1.70;;;0.90;;
24216;SDS011;12356;49.386;8.688;2023-05-10T11:34:31;3.10;;;1.33;;
24216;SDS011;12356;49.386;8.688;2023-05-10T11:37:04;2.85;;;1.10;;
24216;SDS011;12356;49.386;8.688;2023-05-10T11:39:35;4.03;;;1.20;;
24216;SDS011;12356;49.386;8.688;2023-05-10T11:42:05;3.00;;;0.90;;
24216;SDS011;12356;49.386;8.688;2023-05-10T11:44:39;3.97;;;0.80;;
24216;SDS011;12356;49.386;8.688;2023-05-10T11:47:10;2.60;;;0.80;;
24216;SDS011;12356;49.386;8.688;2023-05-10T11:49:45;6.05;;;0.80;;
24216;SDS011;12356;49.386;8.688;2023-05-10T11:52:17;1.42;;;0.88;;
24216;SDS011;12356;49.386;8.688;2023-05-10T11:54:52;2.03;;;0.80;;
24216;SDS011;12356;49.386;8.688;2023-05-10T11:57:25;1.50;;;0.85;;
24216;SDS011;12356;49.386;8.688;2023-05-10T11:59:57;3.78;;;0.90;;
24216;SDS011;12356;49.386;8.688;2023-05-10T12:02:28;1.80;;;0.70;;
24216;SDS011;12356;49.386;8.688;2023-05-10T12:04:59;1.98;;;0.90;;
24216;SDS011;12356;49.386;8.688;2023-05-10T12:07:30;2.42;;;0.95;;
24216;SDS011;12356;49.386;8.688;2023-05-10T12:12:40;1.75;;;0.80;;
24216;SDS011;12356;49.386;8.688;2023-05-10T12:17:50;3.53;;;1.00;;
24216;SDS011;12356;49.386;8.688;2023-05-10T12:20:21;2.40;;;1.02;;
24216;SDS011;12356;49.386;8.688;2023-05-10T12:22:57;2.20;;;1.23;;
24216;SDS011;12356;49.386;8.688;2023-05-10T12:25:35;4.30;;;1.38;;
24216;SDS011;12356;49.386;8.688;2023-05-10T12:28:08;7.40;;;1.45;;
24216;SDS011;12356;49.386;8.688;2023-05-10T12:30:39;4.00;;;1.43;;
24216;SDS011;12356;49.386;8.688;2023-05-10T12:33:11;8.18;;;1.50;;
24216;SDS011;12356;49.386;8.688;2023-05-10T12:35:45;4.00;;;1.70;;
24216;SDS011;12356;49.386;8.688;2023-05-10T12:41:03;4.53;;;1.05;;
24216;SDS011;12356;49.386;8.688;2023-05-10T12:43:35;3.10;;;1.30;;
24216;SDS011;12356;49.386;8.688;2023-05-10T12:46:10;4.80;;;1.30;;
24216;SDS011;12356;49.386;8.688;2023-05-10T12:48:46;2.67;;;1.20;;
24216;SDS011;12356;49.386;8.688;2023-05-10T12:51:19;4.22;;;1.25;;
24216;SDS011;12356;49.386;8.688;2023-05-10T12:53:51;3.65;;;1.00;;
24216;SDS011;12356;49.386;8.688;2023-05-10T12:56:22;2.17;;;1.00;;
24216;SDS011;12356;49.386;8.688;2023-05-10T12:58:53;5.20;;;1.05;;
24216;SDS011;12356;49.386;8.688;2023-05-10T13:01:23;5.50;;;1.15;;
24216;SDS011;12356;49.386;8.688;2023-05-10T13:03:54;2.85;;;1.05;;
24216;SDS011;12356;49.386;8.688;2023-05-10T13:06:24;1.45;;;0.95;;
24216;SDS011;12356;49.386;8.688;2023-05-10T13:08:55;2.17;;;1.00;;
24216;SDS011;12356;49.386;8.688;2023-05-10T13:11:27;1.80;;;1.08;;
24216;SDS011;12356;49.386;8.688;2023-05-10T13:13:58;3.35;;;1.05;;
24216;SDS011;12356;49.386;8.688;2023-05-10T13:16:28;2.65;;;1.00;;
24216;SDS011;12356;49.386;8.688;2023-05-10T13:18:59;2.25;;;0.90;;
24216;SDS011;12356;49.386;8.688;2023-05-10T13:21:29;4.40;;;1.05;;
24216;SDS011;12356;49.386;8.688;2023-05-10T13:24:00;2.42;;;1.08;;
24216;SDS011;12356;49.386;8.688;2023-05-10T13:26:31;1.90;;;1.05;;
24216;SDS011;12356;49.386;8.688;2023-05-10T13:29:02;3.40;;;0.93;;
24216;SDS011;12356;49.386;8.688;2023-05-10T13:31:33;5.40;;;1.00;;
24216;SDS011;12356;49.386;8.688;2023-05-10T13:34:05;4.50;;;1.20;;
24216;SDS011;12356;49.386;8.688;2023-05-10T13:36:36;1.52;;;0.88;;
24216;SDS011;12356;49.386;8.688;2023-05-10T13:39:06;3.70;;;0.90;;
24216;SDS011;12356;49.386;8.688;2023-05-10T13:41:37;3.83;;;0.70;;
24216;SDS011;12356;49.386;8.688;2023-05-10T13:44:07;5.60;;;1.13;;
24216;SDS011;12356;49.386;8.688;2023-05-10T13:46:38;1.70;;;0.80;;
24216;SDS011;12356;49.386;8.688;2023-05-10T13:49:09;4.20;;;1.00;;
24216;SDS011;12356;49.386;8.688;2023-05-10T13:51:39;2.88;;;0.80;;
24216;SDS011;12356;49.386;8.688;2023-05-10T13:54:10;1.50;;;0.70;;
24216;SDS011;12356;49.386;8.688;2023-05-10T13:56:41;1.50;;;0.90;;
24216;SDS011;12356;49.386;8.688;2023-05-10T13:59:12;0.98;;;0.80;;
24216;SDS011;12356;49.386;8.688;2023-05-10T14:01:44;3.33;;;0.77;;
24216;SDS011;12356;49.386;8.688;2023-05-10T14:04:14;1.85;;;0.70;;
24216;SDS011;12356;49.386;8.688;2023-05-10T14:06:45;2.17;;;0.82;;
24216;SDS011;12356;49.386;8.688;2023-05-10T14:09:16;2.72;;;0.70;;
24216;SDS011;12356;49.386;8.688;2023-05-10T14:11:46;6.47;;;0.95;;
24216;SDS011;12356;49.386;8.688;2023-05-10T14:14:17;3.05;;;0.70;;
24216;SDS011;12356;49.386;8.688;2023-05-10T14:16:47;2.70;;;1.13;;
24216;SDS011;12356;49.386;8.688;2023-05-10T14:19:18;7.10;;;1.88;;
24216;SDS011;12356;49.386;8.688;2023-05-10T14:21:49;4.63;;;0.90;;
24216;SDS011;12356;49.386;8.688;2023-05-10T14:24:21;2.67;;;0.90;;
24216;SDS011;12356;49.386;8.688;2023-05-10T14:26:52;1.38;;;0.95;;
24216;SDS011;12356;49.386;8.688;2023-05-10T14:29:23;0.80;;;0.70;;
24216;SDS011;12356;49.386;8.688;2023-05-10T14:31:54;3.50;;;0.65;;
24216;SDS011;12356;49.386;8.688;2023-05-10T14:34:25;1.98;;;0.70;;
24216;SDS011;12356;49.386;8.688;2023-05-10T14:36:55;2.17;;;0.75;;
24216;SDS011;12356;49.386;8.688;2023-05-10T14:39:26;1.50;;;0.60;;
24216;SDS011;12356;49.386;8.688;2023-05-10T14:41:59;2.03;;;0.80;;
24216;SDS011;12356;49.386;8.688;2023-05-10T14:44:30;1.65;;;0.80;;
24216;SDS011;12356;49.386;8.688;2023-05-10T14:47:00;1.58;;;0.70;;
24216;SDS011;12356;49.386;8.688;2023-05-10T14:49:31;3.90;;;0.65;;
24216;SDS011;12356;49.386;8.688;2023-05-10T14:52:02;1.83;;;0.60;;
24216;SDS011;12356;49.386;8.688;2023-05-10T14:54:33;1.85;;;0.60;;
24216;SDS011;12356;49.386;8.688;2023-05-10T14:57:03;1.90;;;0.70;;
24216;SDS011;12356;49.386;8.688;2023-05-10T14:59:34;2.90;;;0.70;;
24216;SDS011;12356;49.386;8.688;2023-05-10T15:02:04;1.60;;;0.70;;
24216;SDS011;12356;49.386;8.688;2023-05-10T15:04:35;1.45;;;0.80;;
24216;SDS011;12356;49.386;8.688;2023-05-10T15:07:06;2.65;;;0.70;;
24216;SDS011;12356;49.386;8.688;2023-05-10T15:09:36;2.00;;;0.50;;
24216;SDS011;12356;49.386;8.688;2023-05-10T15:12:07;1.00;;;0.80;;
24216;SDS011;12356;49.386;8.688;2023-05-10T15:14:37;2.30;;;0.75;;
24216;SDS011;12356;49.386;8.688;2023-05-10T15:17:08;3.22;;;0.93;;
24216;SDS011;12356;49.386;8.688;2023-05-10T15:19:38;1.92;;;0.70;;
24216;SDS011;12356;49.386;8.688;2023-05-10T15:22:09;1.05;;;0.80;;
24216;SDS011;12356;49.386;8.688;2023-05-10T15:24:40;1.13;;;0.70;;
24216;SDS011;12356;49.386;8.688;2023-05-10T15:27:10;1.65;;;0.75;;
24216;SDS011;12356;49.386;8.688;2023-05-10T15:29:41;2.05;;;0.68;;
24216;SDS011;12356;49.386;8.688;2023-05-10T15:32:12;0.75;;;0.73;;
24216;SDS011;12356;49.386;8.688;2023-05-10T15:34:42;1.30;;;0.63;;
24216;SDS011;12356;49.386;8.688;2023-05-10T15:37:13;0.80;;;0.60;;
24216;SDS011;12356;49.386;8.688;2023-05-10T15:39:43;1.10;;;0.70;;
24216;SDS011;12356;49.386;8.688;2023-05-10T15:42:14;0.70;;;0.70;;
24216;SDS011;12356;49.386;8.688;2023-05-10T15:44:45;2.83;;;0.77;;
24216;SDS011;12356;49.386;8.688;2023-05-10T15:47:20;2.25;;;0.70;;
24216;SDS011;12356;49.386;8.688;2023-05-10T15:49:50;1.05;;;0.73;;
24216;SDS011;12356;49.386;8.688;2023-05-10T15:52:21;2.17;;;0.70;;